sensor_id;sensor_type;location;lat;lon;timestamp;P1;durP1;ratioP1;P2;durP2;ratioP2
79478;SDS011;68943;49.472;17.970;2023-07-24T00:00:35;4.25;;;2.30;;
79478;SDS011;68943;49.472;17.970;2023-07-24T00:03:02;4.28;;;2.60;;
79478;SDS011;68943;49.472;17.970;2023-07-24T00:05:28;4.35;;;2.15;;
79478;SDS011;68943;49.472;17.970;2023-07-24T00:07:54;3.15;;;2.10;;
79478;SDS011;68943;49.472;17.970;2023-07-24T00:10:20;9.88;;;2.97;;
79478;SDS011;68943;49.472;17.970;2023-07-24T00:12:46;4.85;;;2.38;;
79478;SDS011;68943;49.472;17.970;2023-07-24T00:15:12;5.05;;;2.20;;
79478;SDS011;68943;49.472;17.970;2023-07-24T00:17:38;4.45;;;2.63;;
79478;SDS011;68943;49.472;17.970;2023-07-24T00:20:04;5.28;;;2.85;;
79478;SDS011;68943;49.472;17.970;2023-07-24T00:22:30;4.82;;;2.35;;
79478;SDS011;68943;49.472;17.970;2023-07-24T00:24:56;7.05;;;2.50;;
79478;SDS011;68943;49.472;17.970;2023-07-24T00:27:22;5.55;;;2.35;;
79478;SDS011;68943;49.472;17.970;2023-07-24T00:29:49;4.85;;;2.67;;
79478;SDS011;68943;49.472;17.970;2023-07-24T00:32:15;7.03;;;2.63;;
79478;SDS011;68943;49.472;17.970;2023-07-24T00:34:41;4.50;;;2.47;;
79478;SDS011;68943;49.472;17.970;2023-07-24T00:37:07;4.32;;;2.53;;
79478;SDS011;68943;49.472;17.970;2023-07-24T00:39:33;4.88;;;2.95;;
79478;SDS011;68943;49.472;17.970;2023-07-24T00:41:59;6.15;;;2.90;;
79478;SDS011;68943;49.472;17.970;2023-07-24T00:44:25;5.95;;;3.25;;
79478;SDS011;68943;49.472;17.970;2023-07-24T00:46:51;6.45;;;3.53;;
79478;SDS011;68943;49.472;17.970;2023-07-24T00:49:17;5.05;;;2.80;;
79478;SDS011;68943;49.472;17.970;2023-07-24T00:51:43;5.43;;;2.88;;
79478;SDS011;68943;49.472;17.970;2023-07-24T00:54:09;5.85;;;3.30;;
79478;SDS011;68943;49.472;17.970;2023-07-24T00:56:37;6.25;;;2.75;;
79478;SDS011;68943;49.472;17.970;2023-07-24T00:59:03;5.20;;;2.75;;
79478;SDS011;68943;49.472;17.970;2023-07-24T01:01:32;4.03;;;2.40;;
79478;SDS011;68943;49.472;17.970;2023-07-24T01:03:58;5.65;;;2.80;;
79478;SDS011;68943;49.472;17.970;2023-07-24T01:06:24;7.22;;;3.40;;
79478;SDS011;68943;49.472;17.970;2023-07-24T01:08:50;6.13;;;2.67;;
79478;SDS011;68943;49.472;17.970;2023-07-24T01:14:14;5.93;;;3.03;;
79478;SDS011;68943;49.472;17.970;2023-07-24T01:16:43;6.78;;;2.42;;
79478;SDS011;68943;49.472;17.970;2023-07-24T01:19:12;6.53;;;3.42;;
79478;SDS011;68943;49.472;17.970;2023-07-24T01:21:52;5.30;;;3.20;;
79478;SDS011;68943;49.472;17.970;2023-07-24T01:24:29;6.20;;;2.72;;
79478;SDS011;68943;49.472;17.970;2023-07-24T01:26:56;5.82;;;3.13;;
79478;SDS011;68943;49.472;17.970;2023-07-24T01:29:22;5.55;;;3.28;;
79478;SDS011;68943;49.472;17.970;2023-07-24T01:31:48;4.93;;;2.17;;
79478;SDS011;68943;49.472;17.970;2023-07-24T01:34:14;5.55;;;2.50;;
79478;SDS011;68943;49.472;17.970;2023-07-24T01:36:40;5.15;;;3.03;;
79478;SDS011;68943;49.472;17.970;2023-07-24T01:39:06;4.40;;;2.72;;
79478;SDS011;68943;49.472;17.970;2023-07-24T01:41:32;7.53;;;3.05;;
79478;SDS011;68943;49.472;17.970;2023-07-24T01:43:59;6.15;;;3.17;;
79478;SDS011;68943;49.472;17.970;2023-07-24T01:46:25;5.72;;;2.72;;
79478;SDS011;68943;49.472;17.970;2023-07-24T01:48:51;6.38;;;3.58;;
79478;SDS011;68943;49.472;17.970;2023-07-24T01:51:17;5.60;;;3.33;;
79478;SDS011;68943;49.472;17.970;2023-07-24T01:53:43;4.65;;;2.97;;
79478;SDS011;68943;49.472;17.970;2023-07-24T01:56:09;6.93;;;3.38;;
79478;SDS011;68943;49.472;17.970;2023-07-24T01:58:35;6.93;;;3.60;;
79478;SDS011;68943;49.472;17.970;2023-07-24T02:01:01;7.03;;;3.65;;
79478;SDS011;68943;49.472;17.970;2023-07-24T02:03:27;5.78;;;3.40;;
79478;SDS011;68943;49.472;17.970;2023-07-24T02:05:53;5.28;;;3.40;;
79478;SDS011;68943;49.472;17.970;2023-07-24T02:08:19;6.75;;;3.05;;
79478;SDS011;68943;49.472;17.970;2023-07-24T02:10:48;8.88;;;3.60;;
79478;SDS011;68943;49.472;17.970;2023-07-24T02:13:14;5.53;;;3.53;;
79478;SDS011;68943;49.472;17.970;2023-07-24T02:15:40;7.80;;;3.63;;
79478;SDS011;68943;49.472;17.970;2023-07-24T02:18:06;6.70;;;3.33;;
79478;SDS011;68943;49.472;17.970;2023-07-24T02:20:32;6.05;;;3.05;;
79478;SDS011;68943;49.472;17.970;2023-07-24T02:22:58;7.45;;;4.15;;
79478;SDS011;68943;49.472;17.970;2023-07-24T02:25:24;5.07;;;3.72;;
79478;SDS011;68943;49.472;17.970;2023-07-24T02:27:50;6.00;;;3.13;;
79478;SDS011;68943;49.472;17.970;2023-07-24T02:30:16;7.05;;;3.53;;
79478;SDS011;68943;49.472;17.970;2023-07-24T02:32:42;4.78;;;2.97;;
79478;SDS011;68943;49.472;17.970;2023-07-24T02:35:08;4.90;;;3.40;;
79478;SDS011;68943;49.472;17.970;2023-07-24T02:37:35;7.60;;;3.67;;
79478;SDS011;68943;49.472;17.970;2023-07-24T02:40:01;5.57;;;2.80;;
79478;SDS011;68943;49.472;17.970;2023-07-24T02:42:27;7.10;;;3.50;;
79478;SDS011;68943;49.472;17.970;2023-07-24T02:44:53;5.22;;;3.30;;
79478;SDS011;68943;49.472;17.970;2023-07-24T02:47:19;7.40;;;3.15;;
79478;SDS011;68943;49.472;17.970;2023-07-24T02:49:45;6.85;;;3.45;;
79478;SDS011;68943;49.472;17.970;2023-07-24T02:52:11;6.68;;;3.35;;
79478;SDS011;68943;49.472;17.970;2023-07-24T02:54:37;8.77;;;3.60;;
79478;SDS011;68943;49.472;17.970;2023-07-24T02:57:03;7.82;;;3.95;;
79478;SDS011;68943;49.472;17.970;2023-07-24T02:59:29;9.48;;;3.53;;
79478;SDS011;68943;49.472;17.970;2023-07-24T03:01:56;6.63;;;3.50;;
79478;SDS011;68943;49.472;17.970;2023-07-24T03:04:23;6.20;;;3.63;;
79478;SDS011;68943;49.472;17.970;2023-07-24T03:06:49;7.30;;;4.13;;
79478;SDS011;68943;49.472;17.970;2023-07-24T03:09:15;5.15;;;3.13;;
79478;SDS011;68943;49.472;17.970;2023-07-24T03:11:41;6.97;;;3.97;;
79478;SDS011;68943;49.472;17.970;2023-07-24T03:14:07;7.43;;;4.15;;
79478;SDS011;68943;49.472;17.970;2023-07-24T03:16:34;4.90;;;3.20;;
79478;SDS011;68943;49.472;17.970;2023-07-24T03:19:00;9.20;;;3.17;;
79478;SDS011;68943;49.472;17.970;2023-07-24T03:21:26;7.35;;;3.65;;
79478;SDS011;68943;49.472;17.970;2023-07-24T03:23:52;7.05;;;3.65;;
79478;SDS011;68943;49.472;17.970;2023-07-24T03:26:18;8.40;;;4.35;;
79478;SDS011;68943;49.472;17.970;2023-07-24T03:28:44;8.02;;;4.43;;
79478;SDS011;68943;49.472;17.970;2023-07-24T03:31:10;7.68;;;4.43;;
79478;SDS011;68943;49.472;17.970;2023-07-24T03:33:36;6.45;;;3.25;;
79478;SDS011;68943;49.472;17.970;2023-07-24T03:36:02;8.10;;;3.85;;
79478;SDS011;68943;49.472;17.970;2023-07-24T03:38:28;7.00;;;4.03;;
79478;SDS011;68943;49.472;17.970;2023-07-24T03:40:54;6.07;;;3.30;;
79478;SDS011;68943;49.472;17.970;2023-07-24T03:43:20;7.70;;;4.38;;
79478;SDS011;68943;49.472;17.970;2023-07-24T03:45:46;6.85;;;4.07;;
79478;SDS011;68943;49.472;17.970;2023-07-24T03:48:13;7.22;;;3.53;;
79478;SDS011;68943;49.472;17.970;2023-07-24T03:50:40;7.25;;;3.38;;
79478;SDS011;68943;49.472;17.970;2023-07-24T03:53:06;5.03;;;3.00;;
79478;SDS011;68943;49.472;17.970;2023-07-24T03:55:32;6.10;;;3.50;;
79478;SDS011;68943;49.472;17.970;2023-07-24T03:57:58;7.10;;;3.75;;
79478;SDS011;68943;49.472;17.970;2023-07-24T04:00:24;6.97;;;3.60;;
79478;SDS011;68943;49.472;17.970;2023-07-24T04:02:50;6.50;;;2.95;;
79478;SDS011;68943;49.472;17.970;2023-07-24T04:05:16;7.32;;;4.28;;
79478;SDS011;68943;49.472;17.970;2023-07-24T04:07:42;5.43;;;3.38;;
79478;SDS011;68943;49.472;17.970;2023-07-24T04:10:08;6.65;;;3.80;;
79478;SDS011;68943;49.472;17.970;2023-07-24T04:12:34;8.15;;;3.20;;
79478;SDS011;68943;49.472;17.970;2023-07-24T04:15:00;5.88;;;3.15;;
79478;SDS011;68943;49.472;17.970;2023-07-24T04:17:26;4.47;;;3.17;;
79478;SDS011;68943;49.472;17.970;2023-07-24T04:19:52;6.22;;;3.33;;
79478;SDS011;68943;49.472;17.970;2023-07-24T04:22:18;7.72;;;4.20;;
79478;SDS011;68943;49.472;17.970;2023-07-24T04:24:44;6.00;;;3.72;;
79478;SDS011;68943;49.472;17.970;2023-07-24T04:27:10;6.93;;;3.47;;
79478;SDS011;68943;49.472;17.970;2023-07-24T04:29:36;5.30;;;3.65;;
79478;SDS011;68943;49.472;17.970;2023-07-24T04:32:02;6.20;;;3.72;;
79478;SDS011;68943;49.472;17.970;2023-07-24T04:34:29;6.03;;;3.53;;
79478;SDS011;68943;49.472;17.970;2023-07-24T04:36:55;6.28;;;3.13;;
79478;SDS011;68943;49.472;17.970;2023-07-24T04:39:21;6.78;;;3.92;;
79478;SDS011;68943;49.472;17.970;2023-07-24T04:41:47;5.80;;;3.28;;
79478;SDS011;68943;49.472;17.970;2023-07-24T04:44:13;5.80;;;3.30;;
79478;SDS011;68943;49.472;17.970;2023-07-24T04:46:39;5.20;;;3.50;;
79478;SDS011;68943;49.472;17.970;2023-07-24T04:49:05;7.38;;;3.55;;
79478;SDS011;68943;49.472;17.970;2023-07-24T04:51:31;4.97;;;2.92;;
79478;SDS011;68943;49.472;17.970;2023-07-24T04:53:57;6.07;;;4.05;;
79478;SDS011;68943;49.472;17.970;2023-07-24T04:56:23;5.78;;;3.65;;
79478;SDS011;68943;49.472;17.970;2023-07-24T04:58:49;7.00;;;3.30;;
79478;SDS011;68943;49.472;17.970;2023-07-24T05:01:15;5.93;;;3.70;;
79478;SDS011;68943;49.472;17.970;2023-07-24T05:03:41;6.95;;;4.28;;
79478;SDS011;68943;49.472;17.970;2023-07-24T05:06:07;11.13;;;4.50;;
79478;SDS011;68943;49.472;17.970;2023-07-24T05:08:33;6.53;;;3.63;;
79478;SDS011;68943;49.472;17.970;2023-07-24T05:10:59;6.50;;;4.38;;
79478;SDS011;68943;49.472;17.970;2023-07-24T05:13:25;7.25;;;4.22;;
79478;SDS011;68943;49.472;17.970;2023-07-24T05:15:51;6.55;;;3.60;;
79478;SDS011;68943;49.472;17.970;2023-07-24T05:18:17;7.13;;;3.78;;
79478;SDS011;68943;49.472;17.970;2023-07-24T05:20:47;5.95;;;3.30;;
79478;SDS011;68943;49.472;17.970;2023-07-24T05:23:16;7.43;;;3.72;;
79478;SDS011;68943;49.472;17.970;2023-07-24T05:25:42;5.32;;;3.53;;
79478;SDS011;68943;49.472;17.970;2023-07-24T05:28:08;7.03;;;3.63;;
79478;SDS011;68943;49.472;17.970;2023-07-24T05:30:34;6.40;;;3.67;;
79478;SDS011;68943;49.472;17.970;2023-07-24T05:33:00;7.53;;;4.03;;
79478;SDS011;68943;49.472;17.970;2023-07-24T05:35:26;6.65;;;4.78;;
79478;SDS011;68943;49.472;17.970;2023-07-24T05:37:52;5.90;;;4.18;;
79478;SDS011;68943;49.472;17.970;2023-07-24T05:40:18;6.65;;;3.15;;
79478;SDS011;68943;49.472;17.970;2023-07-24T05:42:45;6.13;;;4.18;;
79478;SDS011;68943;49.472;17.970;2023-07-24T05:45:12;7.80;;;3.60;;
79478;SDS011;68943;49.472;17.970;2023-07-24T05:47:40;5.10;;;3.42;;
79478;SDS011;68943;49.472;17.970;2023-07-24T05:50:06;7.53;;;4.18;;
79478;SDS011;68943;49.472;17.970;2023-07-24T05:52:32;7.38;;;3.47;;
79478;SDS011;68943;49.472;17.970;2023-07-24T05:54:58;5.30;;;3.55;;
79478;SDS011;68943;49.472;17.970;2023-07-24T05:57:24;6.30;;;3.80;;
79478;SDS011;68943;49.472;17.970;2023-07-24T05:59:50;7.18;;;4.20;;
79478;SDS011;68943;49.472;17.970;2023-07-24T06:02:17;4.93;;;3.15;;
79478;SDS011;68943;49.472;17.970;2023-07-24T06:04:43;8.98;;;3.65;;
79478;SDS011;68943;49.472;17.970;2023-07-24T06:07:09;6.50;;;3.97;;
79478;SDS011;68943;49.472;17.970;2023-07-24T06:09:35;7.38;;;4.18;;
79478;SDS011;68943;49.472;17.970;2023-07-24T06:12:07;7.72;;;4.55;;
79478;SDS011;68943;49.472;17.970;2023-07-24T06:14:33;9.02;;;4.13;;
79478;SDS011;68943;49.472;17.970;2023-07-24T06:17:01;7.63;;;3.72;;
79478;SDS011;68943;49.472;17.970;2023-07-24T06:19:27;6.22;;;4.53;;
79478;SDS011;68943;49.472;17.970;2023-07-24T06:21:53;7.22;;;4.30;;
79478;SDS011;68943;49.472;17.970;2023-07-24T06:24:19;7.22;;;4.80;;
79478;SDS011;68943;49.472;17.970;2023-07-24T06:26:45;6.32;;;3.63;;
79478;SDS011;68943;49.472;17.970;2023-07-24T06:29:12;8.57;;;4.70;;
79478;SDS011;68943;49.472;17.970;2023-07-24T06:31:39;6.25;;;3.53;;
79478;SDS011;68943;49.472;17.970;2023-07-24T06:34:05;10.25;;;4.90;;
79478;SDS011;68943;49.472;17.970;2023-07-24T06:36:32;7.53;;;4.25;;
79478;SDS011;68943;49.472;17.970;2023-07-24T06:38:58;7.55;;;3.95;;
79478;SDS011;68943;49.472;17.970;2023-07-24T06:41:24;6.82;;;4.40;;
79478;SDS011;68943;49.472;17.970;2023-07-24T06:43:51;6.55;;;4.25;;
79478;SDS011;68943;49.472;17.970;2023-07-24T06:46:17;8.68;;;4.80;;
79478;SDS011;68943;49.472;17.970;2023-07-24T06:48:43;6.88;;;4.45;;
79478;SDS011;68943;49.472;17.970;2023-07-24T06:51:09;7.88;;;3.92;;
79478;SDS011;68943;49.472;17.970;2023-07-24T06:53:35;8.05;;;4.72;;
79478;SDS011;68943;49.472;17.970;2023-07-24T06:56:01;5.80;;;3.60;;
79478;SDS011;68943;49.472;17.970;2023-07-24T06:58:27;8.38;;;4.65;;
79478;SDS011;68943;49.472;17.970;2023-07-24T07:00:53;7.47;;;4.63;;
79478;SDS011;68943;49.472;17.970;2023-07-24T07:03:20;7.75;;;4.90;;
79478;SDS011;68943;49.472;17.970;2023-07-24T07:05:46;7.90;;;4.45;;
79478;SDS011;68943;49.472;17.970;2023-07-24T07:08:14;7.90;;;4.70;;
79478;SDS011;68943;49.472;17.970;2023-07-24T07:10:40;7.38;;;4.85;;
79478;SDS011;68943;49.472;17.970;2023-07-24T07:13:06;7.95;;;4.90;;
79478;SDS011;68943;49.472;17.970;2023-07-24T07:15:35;7.88;;;4.50;;
79478;SDS011;68943;49.472;17.970;2023-07-24T07:20:27;6.47;;;4.70;;
79478;SDS011;68943;49.472;17.970;2023-07-24T07:22:53;10.77;;;4.82;;
79478;SDS011;68943;49.472;17.970;2023-07-24T07:25:19;7.22;;;3.80;;
79478;SDS011;68943;49.472;17.970;2023-07-24T07:27:45;9.90;;;4.30;;
79478;SDS011;68943;49.472;17.970;2023-07-24T07:30:11;6.80;;;4.35;;
79478;SDS011;68943;49.472;17.970;2023-07-24T07:32:37;6.93;;;3.63;;
79478;SDS011;68943;49.472;17.970;2023-07-24T07:35:04;7.82;;;4.70;;
79478;SDS011;68943;49.472;17.970;2023-07-24T07:37:31;7.25;;;4.28;;
79478;SDS011;68943;49.472;17.970;2023-07-24T07:39:57;6.90;;;4.28;;
79478;SDS011;68943;49.472;17.970;2023-07-24T07:42:24;7.22;;;4.38;;
79478;SDS011;68943;49.472;17.970;2023-07-24T07:44:50;8.30;;;4.38;;
79478;SDS011;68943;49.472;17.970;2023-07-24T07:47:16;10.63;;;4.65;;
79478;SDS011;68943;49.472;17.970;2023-07-24T07:49:42;7.57;;;4.63;;
79478;SDS011;68943;49.472;17.970;2023-07-24T07:52:08;7.95;;;4.78;;
79478;SDS011;68943;49.472;17.970;2023-07-24T07:54:34;9.15;;;4.95;;
79478;SDS011;68943;49.472;17.970;2023-07-24T07:57:00;6.80;;;4.40;;
79478;SDS011;68943;49.472;17.970;2023-07-24T07:59:26;9.38;;;4.88;;
79478;SDS011;68943;49.472;17.970;2023-07-24T08:01:52;8.25;;;4.25;;
79478;SDS011;68943;49.472;17.970;2023-07-24T08:04:20;7.65;;;4.63;;
79478;SDS011;68943;49.472;17.970;2023-07-24T08:06:46;9.68;;;4.40;;
79478;SDS011;68943;49.472;17.970;2023-07-24T08:09:12;9.57;;;3.78;;
79478;SDS011;68943;49.472;17.970;2023-07-24T08:11:38;9.68;;;4.38;;
79478;SDS011;68943;49.472;17.970;2023-07-24T08:14:04;7.20;;;3.78;;
79478;SDS011;68943;49.472;17.970;2023-07-24T08:16:31;7.57;;;4.05;;
79478;SDS011;68943;49.472;17.970;2023-07-24T08:18:57;9.43;;;4.55;;
79478;SDS011;68943;49.472;17.970;2023-07-24T08:21:23;9.80;;;4.63;;
79478;SDS011;68943;49.472;17.970;2023-07-24T08:23:49;6.65;;;4.50;;
79478;SDS011;68943;49.472;17.970;2023-07-24T08:26:15;6.25;;;3.85;;
79478;SDS011;68943;49.472;17.970;2023-07-24T08:28:41;7.72;;;4.20;;
79478;SDS011;68943;49.472;17.970;2023-07-24T08:31:07;8.07;;;3.72;;
79478;SDS011;68943;49.472;17.970;2023-07-24T08:33:34;10.07;;;4.78;;
79478;SDS011;68943;49.472;17.970;2023-07-24T08:36:01;6.82;;;4.10;;
79478;SDS011;68943;49.472;17.970;2023-07-24T08:38:27;7.70;;;4.93;;
79478;SDS011;68943;49.472;17.970;2023-07-24T08:41:00;6.90;;;4.43;;
79478;SDS011;68943;49.472;17.970;2023-07-24T08:43:26;8.23;;;4.72;;
79478;SDS011;68943;49.472;17.970;2023-07-24T08:45:52;8.07;;;5.35;;
79478;SDS011;68943;49.472;17.970;2023-07-24T08:48:18;9.82;;;4.35;;
79478;SDS011;68943;49.472;17.970;2023-07-24T08:50:46;8.55;;;4.32;;
79478;SDS011;68943;49.472;17.970;2023-07-24T08:53:13;8.27;;;5.35;;
79478;SDS011;68943;49.472;17.970;2023-07-24T08:55:40;6.72;;;4.53;;
79478;SDS011;68943;49.472;17.970;2023-07-24T08:58:07;8.43;;;4.88;;
79478;SDS011;68943;49.472;17.970;2023-07-24T09:00:34;6.97;;;4.30;;
79478;SDS011;68943;49.472;17.970;2023-07-24T09:03:00;9.10;;;5.00;;
79478;SDS011;68943;49.472;17.970;2023-07-24T09:05:26;8.95;;;4.82;;
79478;SDS011;68943;49.472;17.970;2023-07-24T09:07:52;6.35;;;4.32;;
79478;SDS011;68943;49.472;17.970;2023-07-24T09:10:25;8.13;;;4.55;;
79478;SDS011;68943;49.472;17.970;2023-07-24T09:12:51;11.43;;;4.43;;
79478;SDS011;68943;49.472;17.970;2023-07-24T09:15:19;8.85;;;5.00;;
79478;SDS011;68943;49.472;17.970;2023-07-24T09:17:49;9.73;;;4.93;;
79478;SDS011;68943;49.472;17.970;2023-07-24T09:20:15;11.38;;;5.18;;
79478;SDS011;68943;49.472;17.970;2023-07-24T09:22:51;8.40;;;4.50;;
79478;SDS011;68943;49.472;17.970;2023-07-24T09:25:18;8.07;;;5.28;;
79478;SDS011;68943;49.472;17.970;2023-07-24T09:27:44;9.73;;;5.15;;
79478;SDS011;68943;49.472;17.970;2023-07-24T09:30:13;10.07;;;5.40;;
79478;SDS011;68943;49.472;17.970;2023-07-24T09:32:40;8.82;;;6.15;;
79478;SDS011;68943;49.472;17.970;2023-07-24T09:35:27;8.32;;;5.47;;
79478;SDS011;68943;49.472;17.970;2023-07-24T09:38:03;7.90;;;5.07;;
79478;SDS011;68943;49.472;17.970;2023-07-24T09:40:36;8.73;;;4.90;;
79478;SDS011;68943;49.472;17.970;2023-07-24T09:43:03;8.30;;;5.30;;
79478;SDS011;68943;49.472;17.970;2023-07-24T09:45:29;8.18;;;5.03;;
79478;SDS011;68943;49.472;17.970;2023-07-24T09:47:55;13.95;;;5.38;;
79478;SDS011;68943;49.472;17.970;2023-07-24T09:50:25;9.82;;;5.18;;
79478;SDS011;68943;49.472;17.970;2023-07-24T09:52:51;7.85;;;5.03;;
79478;SDS011;68943;49.472;17.970;2023-07-24T09:55:29;9.02;;;4.50;;
79478;SDS011;68943;49.472;17.970;2023-07-24T09:57:56;8.52;;;5.55;;
79478;SDS011;68943;49.472;17.970;2023-07-24T10:00:23;8.85;;;5.45;;
79478;SDS011;68943;49.472;17.970;2023-07-24T10:02:50;7.38;;;4.85;;
79478;SDS011;68943;49.472;17.970;2023-07-24T10:05:16;8.82;;;4.90;;
79478;SDS011;68943;49.472;17.970;2023-07-24T10:07:44;8.73;;;5.07;;
79478;SDS011;68943;49.472;17.970;2023-07-24T10:10:11;8.05;;;5.18;;
79478;SDS011;68943;49.472;17.970;2023-07-24T10:12:37;10.32;;;6.10;;
79478;SDS011;68943;49.472;17.970;2023-07-24T10:15:04;8.13;;;4.85;;
79478;SDS011;68943;49.472;17.970;2023-07-24T10:17:34;10.10;;;5.43;;
79478;SDS011;68943;49.472;17.970;2023-07-24T10:20:02;7.72;;;5.30;;
79478;SDS011;68943;49.472;17.970;2023-07-24T10:22:29;9.85;;;6.05;;
79478;SDS011;68943;49.472;17.970;2023-07-24T10:24:55;8.82;;;5.63;;
79478;SDS011;68943;49.472;17.970;2023-07-24T10:27:25;7.70;;;4.63;;
79478;SDS011;68943;49.472;17.970;2023-07-24T10:30:02;7.85;;;4.93;;
79478;SDS011;68943;49.472;17.970;2023-07-24T10:32:30;9.77;;;5.80;;
79478;SDS011;68943;49.472;17.970;2023-07-24T10:35:00;9.77;;;5.03;;
79478;SDS011;68943;49.472;17.970;2023-07-24T10:37:33;9.32;;;5.40;;
79478;SDS011;68943;49.472;17.970;2023-07-24T10:40:18;8.20;;;5.32;;
79478;SDS011;68943;49.472;17.970;2023-07-24T10:42:44;8.80;;;5.95;;
79478;SDS011;68943;49.472;17.970;2023-07-24T10:45:10;9.35;;;5.20;;
79478;SDS011;68943;49.472;17.970;2023-07-24T10:47:36;11.32;;;5.80;;
79478;SDS011;68943;49.472;17.970;2023-07-24T10:50:03;7.95;;;4.88;;
79478;SDS011;68943;49.472;17.970;2023-07-24T10:52:29;8.13;;;4.68;;
79478;SDS011;68943;49.472;17.970;2023-07-24T10:54:55;10.23;;;5.47;;
79478;SDS011;68943;49.472;17.970;2023-07-24T10:57:28;6.22;;;4.38;;
79478;SDS011;68943;49.472;17.970;2023-07-24T10:59:55;8.38;;;5.15;;
79478;SDS011;68943;49.472;17.970;2023-07-24T11:02:21;10.15;;;4.95;;
79478;SDS011;68943;49.472;17.970;2023-07-24T11:04:47;9.18;;;4.65;;
79478;SDS011;68943;49.472;17.970;2023-07-24T11:07:13;8.02;;;5.47;;
79478;SDS011;68943;49.472;17.970;2023-07-24T11:09:39;7.90;;;5.10;;
79478;SDS011;68943;49.472;17.970;2023-07-24T11:12:15;8.20;;;5.15;;
79478;SDS011;68943;49.472;17.970;2023-07-24T11:17:14;9.10;;;5.10;;
79478;SDS011;68943;49.472;17.970;2023-07-24T11:19:41;8.35;;;4.35;;
79478;SDS011;68943;49.472;17.970;2023-07-24T11:22:07;7.68;;;4.65;;
79478;SDS011;68943;49.472;17.970;2023-07-24T11:24:40;9.35;;;5.13;;
79478;SDS011;68943;49.472;17.970;2023-07-24T11:27:14;8.35;;;5.63;;
79478;SDS011;68943;49.472;17.970;2023-07-24T11:29:41;8.80;;;5.03;;
79478;SDS011;68943;49.472;17.970;2023-07-24T11:32:07;9.65;;;5.13;;
79478;SDS011;68943;49.472;17.970;2023-07-24T11:34:33;7.72;;;4.65;;
79478;SDS011;68943;49.472;17.970;2023-07-24T11:37:00;8.38;;;4.93;;
79478;SDS011;68943;49.472;17.970;2023-07-24T11:39:27;8.07;;;4.65;;
79478;SDS011;68943;49.472;17.970;2023-07-24T11:41:53;8.10;;;5.57;;
79478;SDS011;68943;49.472;17.970;2023-07-24T11:44:26;8.50;;;5.43;;
79478;SDS011;68943;49.472;17.970;2023-07-24T11:47:03;8.88;;;5.47;;
79478;SDS011;68943;49.472;17.970;2023-07-24T11:49:30;7.80;;;4.68;;
79478;SDS011;68943;49.472;17.970;2023-07-24T11:52:00;8.05;;;5.60;;
79478;SDS011;68943;49.472;17.970;2023-07-24T11:54:27;7.00;;;5.07;;
79478;SDS011;68943;49.472;17.970;2023-07-24T11:56:53;8.27;;;5.97;;
79478;SDS011;68943;49.472;17.970;2023-07-24T11:59:19;10.25;;;4.85;;
79478;SDS011;68943;49.472;17.970;2023-07-24T12:01:46;7.35;;;4.57;;
79478;SDS011;68943;49.472;17.970;2023-07-24T12:04:13;10.13;;;5.47;;
79478;SDS011;68943;49.472;17.970;2023-07-24T12:06:40;8.48;;;4.70;;
79478;SDS011;68943;49.472;17.970;2023-07-24T12:09:07;9.40;;;5.72;;
79478;SDS011;68943;49.472;17.970;2023-07-24T12:11:33;10.63;;;5.57;;
79478;SDS011;68943;49.472;17.970;2023-07-24T12:14:05;7.47;;;5.53;;
79478;SDS011;68943;49.472;17.970;2023-07-24T12:16:33;9.18;;;5.60;;
79478;SDS011;68943;49.472;17.970;2023-07-24T12:18:59;8.63;;;5.30;;
79478;SDS011;68943;49.472;17.970;2023-07-24T12:21:25;8.43;;;5.30;;
79478;SDS011;68943;49.472;17.970;2023-07-24T12:23:51;7.80;;;5.22;;
79478;SDS011;68943;49.472;17.970;2023-07-24T12:26:18;8.90;;;5.30;;
79478;SDS011;68943;49.472;17.970;2023-07-24T12:28:44;10.23;;;5.88;;
79478;SDS011;68943;49.472;17.970;2023-07-24T12:31:10;8.18;;;5.30;;
79478;SDS011;68943;49.472;17.970;2023-07-24T12:33:36;9.73;;;5.18;;
79478;SDS011;68943;49.472;17.970;2023-07-24T12:36:02;14.27;;;6.95;;
79478;SDS011;68943;49.472;17.970;2023-07-24T12:38:28;11.30;;;5.28;;
79478;SDS011;68943;49.472;17.970;2023-07-24T12:40:55;9.88;;;5.70;;
79478;SDS011;68943;49.472;17.970;2023-07-24T12:43:21;11.55;;;5.75;;
79478;SDS011;68943;49.472;17.970;2023-07-24T12:45:48;12.50;;;5.82;;
79478;SDS011;68943;49.472;17.970;2023-07-24T12:48:14;9.30;;;6.10;;
79478;SDS011;68943;49.472;17.970;2023-07-24T12:50:42;10.18;;;5.45;;
79478;SDS011;68943;49.472;17.970;2023-07-24T12:53:14;9.70;;;6.18;;
79478;SDS011;68943;49.472;17.970;2023-07-24T12:55:43;10.02;;;6.03;;
79478;SDS011;68943;49.472;17.970;2023-07-24T12:58:09;10.85;;;5.63;;
79478;SDS011;68943;49.472;17.970;2023-07-24T13:00:38;10.43;;;5.78;;
79478;SDS011;68943;49.472;17.970;2023-07-24T13:03:04;9.90;;;5.88;;
79478;SDS011;68943;49.472;17.970;2023-07-24T13:05:30;11.00;;;6.20;;
79478;SDS011;68943;49.472;17.970;2023-07-24T13:07:56;11.63;;;6.00;;
79478;SDS011;68943;49.472;17.970;2023-07-24T13:10:22;18.92;;;8.27;;
79478;SDS011;68943;49.472;17.970;2023-07-24T13:12:48;12.70;;;6.50;;
79478;SDS011;68943;49.472;17.970;2023-07-24T13:15:14;13.10;;;6.30;;
79478;SDS011;68943;49.472;17.970;2023-07-24T13:17:40;10.18;;;5.57;;
79478;SDS011;68943;49.472;17.970;2023-07-24T13:20:07;10.25;;;5.38;;
79478;SDS011;68943;49.472;17.970;2023-07-24T13:22:33;9.73;;;5.75;;
79478;SDS011;68943;49.472;17.970;2023-07-24T13:24:59;7.22;;;4.72;;
79478;SDS011;68943;49.472;17.970;2023-07-24T13:27:25;8.98;;;6.07;;
79478;SDS011;68943;49.472;17.970;2023-07-24T13:29:51;12.63;;;8.82;;
79478;SDS011;68943;49.472;17.970;2023-07-24T13:32:17;8.10;;;5.13;;
79478;SDS011;68943;49.472;17.970;2023-07-24T13:34:43;9.20;;;6.00;;
79478;SDS011;68943;49.472;17.970;2023-07-24T13:37:10;13.23;;;6.55;;
79478;SDS011;68943;49.472;17.970;2023-07-24T13:39:36;11.15;;;6.45;;
79478;SDS011;68943;49.472;17.970;2023-07-24T13:42:03;10.70;;;6.60;;
79478;SDS011;68943;49.472;17.970;2023-07-24T13:44:29;10.93;;;5.82;;
79478;SDS011;68943;49.472;17.970;2023-07-24T13:46:56;11.00;;;5.68;;
79478;SDS011;68943;49.472;17.970;2023-07-24T13:49:22;9.82;;;5.07;;
79478;SDS011;68943;49.472;17.970;2023-07-24T13:51:49;11.68;;;5.72;;
79478;SDS011;68943;49.472;17.970;2023-07-24T13:54:15;10.05;;;6.32;;
79478;SDS011;68943;49.472;17.970;2023-07-24T13:56:41;11.98;;;5.50;;
79478;SDS011;68943;49.472;17.970;2023-07-24T13:59:07;8.95;;;6.20;;
79478;SDS011;68943;49.472;17.970;2023-07-24T14:01:33;9.85;;;5.20;;
79478;SDS011;68943;49.472;17.970;2023-07-24T14:03:59;12.30;;;6.25;;
79478;SDS011;68943;49.472;17.970;2023-07-24T14:06:25;9.50;;;6.10;;
79478;SDS011;68943;49.472;17.970;2023-07-24T14:08:55;11.70;;;7.35;;
79478;SDS011;68943;49.472;17.970;2023-07-24T14:11:21;10.65;;;6.45;;
79478;SDS011;68943;49.472;17.970;2023-07-24T14:13:47;10.98;;;6.28;;
79478;SDS011;68943;49.472;17.970;2023-07-24T14:16:15;12.60;;;5.90;;
79478;SDS011;68943;49.472;17.970;2023-07-24T14:18:41;11.73;;;5.85;;
79478;SDS011;68943;49.472;17.970;2023-07-24T14:21:07;9.20;;;5.97;;
79478;SDS011;68943;49.472;17.970;2023-07-24T14:23:33;10.32;;;5.93;;
79478;SDS011;68943;49.472;17.970;2023-07-24T14:25:59;11.60;;;6.57;;
79478;SDS011;68943;49.472;17.970;2023-07-24T14:28:25;10.40;;;6.68;;
79478;SDS011;68943;49.472;17.970;2023-07-24T14:30:52;9.52;;;6.28;;
79478;SDS011;68943;49.472;17.970;2023-07-24T14:33:18;10.57;;;6.47;;
79478;SDS011;68943;49.472;17.970;2023-07-24T14:35:44;11.02;;;6.15;;
79478;SDS011;68943;49.472;17.970;2023-07-24T14:38:11;9.55;;;6.25;;